Time;durP1;ratioP1;P1;durP2;ratioP2;P2;SDS_P1;SDS_P2;PMS_P1;PMS_P2;Temp;Humidity;BMP_temperature;BMP_pressure;BME280_temperature;BME280_humidity;BME280_pressure;Samples;Min_cycle;Max_cycle;Signal;HPM_P1;HPM_P2
2022/11/24 00:00:28;;;;;;;26.93;10.77;;;;;;;;;;5095646;28;20773;-82
2022/11/24 00:02:54;;;;;;;24.57;9.47;;;;;;;;;;5095112;28;20340;-82
2022/11/24 00:05:21;;;;;;;25.83;10.47;;;;;;;;;;5095871;28;20350;-82
2022/11/24 00:07:47;;;;;;;24.57;9.73;;;;;;;;;;5078525;28;20305;-84
2022/11/24 00:10:14;;;;;;;26.23;9.50;;;;;;;;;;5096622;28;20765;-82
2022/11/24 00:12:40;;;;;;;29.30;10.33;;;;;;;;;;5095310;28;20778;-82
2022/11/24 00:15:06;;;;;;;23.50;9.27;;;;;;;;;;5095315;28;20369;-82
2022/11/24 00:17:32;;;;;;;28.80;9.80;;;;;;;;;;5095723;28;20351;-82
2022/11/24 00:19:58;;;;;;;32.10;10.63;;;;;;;;;;5096265;28;20313;-83
2022/11/24 00:22:24;;;;;;;24.07;9.03;;;;;;;;;;5078507;28;20388;-82
2022/11/24 00:24:50;;;;;;;28.57;9.87;;;;;;;;;;5095164;28;20367;-83
2022/11/24 00:27:17;;;;;;;33.07;10.50;;;;;;;;;;5095252;28;20389;-82
2022/11/24 00:29:43;;;;;;;30.83;10.60;;;;;;;;;;5095542;28;20290;-82
2022/11/24 00:32:09;;;;;;;28.10;10.27;;;;;;;;;;5078163;28;20279;-82
2022/11/24 00:34:35;;;;;;;28.10;9.33;;;;;;;;;;5094613;28;20289;-82
2022/11/24 00:37:01;;;;;;;37.63;10.33;;;;;;;;;;5078179;28;20627;-82
2022/11/24 00:39:27;;;;;;;31.00;10.70;;;;;;;;;;5094843;28;20286;-82
2022/11/24 00:41:53;;;;;;;26.70;9.67;;;;;;;;;;5094881;28;20318;-83
2022/11/24 00:44:19;;;;;;;34.00;10.07;;;;;;;;;;5094770;28;20339;-82
2022/11/24 00:46:45;;;;;;;24.30;9.80;;;;;;;;;;5077751;28;20290;-82
2022/11/24 00:49:12;;;;;;;32.90;8.93;;;;;;;;;;5094332;28;20388;-82
2022/11/24 00:51:38;;;;;;;29.67;10.43;;;;;;;;;;5077958;28;20290;-82
2022/11/24 00:54:05;;;;;;;32.90;9.20;;;;;;;;;;5077737;28;20289;-82
2022/11/24 00:56:31;;;;;;;31.30;9.63;;;;;;;;;;5094685;28;20353;-82
2022/11/24 00:58:57;;;;;;;30.80;9.10;;;;;;;;;;5094272;28;20297;-82
2022/11/24 01:01:24;;;;;;;33.23;9.30;;;;;;;;;;5095628;28;20278;-82
2022/11/24 01:03:51;;;;;;;28.20;8.77;;;;;;;;;;5094548;28;20333;-82
2022/11/24 01:06:21;;;;;;;29.97;9.53;;;;;;;;;;5077632;28;20282;-82
2022/11/24 01:08:48;;;;;;;27.97;9.00;;;;;;;;;;5094635;28;20391;-82
2022/11/24 01:11:25;;;;;;;33.27;9.73;;;;;;;;;;5094222;28;20878;-82
2022/11/24 01:13:52;;;;;;;37.63;8.80;;;;;;;;;;5077759;28;20293;-80
2022/11/24 01:16:21;;;;;;;32.13;8.77;;;;;;;;;;5095070;28;20286;-81
2022/11/24 01:18:47;;;;;;;28.83;8.00;;;;;;;;;;5094304;28;20294;-82
2022/11/24 01:21:14;;;;;;;40.30;8.47;;;;;;;;;;5094056;28;20316;-81
2022/11/24 01:23:40;;;;;;;40.80;9.17;;;;;;;;;;5094121;28;20329;-82
2022/11/24 01:26:07;;;;;;;32.57;9.90;;;;;;;;;;5094882;28;20785;-81
2022/11/24 01:28:33;;;;;;;38.80;7.60;;;;;;;;;;5094236;28;20278;-81
2022/11/24 01:31:00;;;;;;;28.77;7.97;;;;;;;;;;5094942;28;20362;-82
2022/11/24 01:33:26;;;;;;;32.53;8.13;;;;;;;;;;5093533;28;20754;-80
2022/11/24 01:35:53;;;;;;;29.97;7.37;;;;;;;;;;5094103;28;20770;-81
2022/11/24 01:38:19;;;;;;;34.03;7.30;;;;;;;;;;5093759;28;20294;-79
2022/11/24 01:40:46;;;;;;;37.50;7.23;;;;;;;;;;5094966;28;20318;-79
2022/11/24 01:43:19;;;;;;;34.07;6.97;;;;;;;;;;5093327;28;20313;-81
2022/11/24 01:45:46;;;;;;;35.67;7.87;;;;;;;;;;5093818;28;20282;-81
2022/11/24 01:48:34;;;;;;;33.47;7.20;;;;;;;;;;5094537;28;20274;-81
2022/11/24 01:51:14;;;;;;;33.63;7.47;;;;;;;;;;5094539;28;20720;-81
2022/11/24 01:53:42;;;;;;;36.17;7.07;;;;;;;;;;5093678;28;20627;-80
2022/11/24 01:56:09;;;;;;;29.80;6.57;;;;;;;;;;5093392;28;20290;-81
2022/11/24 01:58:36;;;;;;;35.70;8.50;;;;;;;;;;5076867;28;20318;-80
2022/11/24 02:01:02;;;;;;;27.33;5.97;;;;;;;;;;5076369;28;20290;-80
2022/11/24 02:03:30;;;;;;;26.70;6.50;;;;;;;;;;5094378;28;20294;-80
2022/11/24 02:06:09;;;;;;;31.13;6.30;;;;;;;;;;5093191;28;20878;-80
2022/11/24 02:08:58;;;;;;;29.53;6.07;;;;;;;;;;5092724;28;20283;-80
2022/11/24 02:11:26;;;;;;;36.00;6.17;;;;;;;;;;5084754;28;20301;-80
2022/11/24 02:13:53;;;;;;;27.80;5.30;;;;;;;;;;5093033;28;20777;-80
2022/11/24 02:16:19;;;;;;;29.03;7.20;;;;;;;;;;5092900;28;20849;-80
2022/11/24 02:18:46;;;;;;;29.30;4.90;;;;;;;;;;5093209;28;20308;-80
2022/11/24 02:21:13;;;;;;;28.53;6.23;;;;;;;;;;5092928;28;20346;-80
2022/11/24 02:23:39;;;;;;;29.80;5.57;;;;;;;;;;5092868;28;20388;-80
2022/11/24 02:26:12;;;;;;;37.53;6.53;;;;;;;;;;5093767;28;20691;-81
2022/11/24 02:28:38;;;;;;;27.73;6.27;;;;;;;;;;5094117;28;20684;-80
2022/11/24 02:31:07;;;;;;;28.37;5.43;;;;;;;;;;5092756;28;20286;-82
2022/11/24 02:33:33;;;;;;;38.23;5.83;;;;;;;;;;5092558;28;20274;-81
2022/11/24 02:35:59;;;;;;;33.60;5.80;;;;;;;;;;5093119;28;20344;-81
2022/11/24 02:38:30;;;;;;;31.40;6.97;;;;;;;;;;5092595;28;20290;-81
2022/11/24 02:40:56;;;;;;;28.00;5.60;;;;;;;;;;5092772;28;20347;-81
2022/11/24 02:43:23;;;;;;;34.23;5.53;;;;;;;;;;5092324;28;20340;-80
2022/11/24 02:45:49;;;;;;;29.43;5.43;;;;;;;;;;5092713;28;20282;-80
2022/11/24 02:48:17;;;;;;;39.27;5.60;;;;;;;;;;5092435;28;20282;-81
2022/11/24 02:50:43;;;;;;;28.57;5.37;;;;;;;;;;5093651;28;20290;-81
2022/11/24 02:53:09;;;;;;;20.33;4.53;;;;;;;;;;5093239;28;20286;-81
2022/11/24 02:55:35;;;;;;;33.77;6.53;;;;;;;;;;5092716;28;20284;-81
2022/11/24 02:58:02;;;;;;;28.73;5.57;;;;;;;;;;5092595;28;20293;-81
2022/11/24 03:00:28;;;;;;;26.87;5.60;;;;;;;;;;5092198;28;20294;-81
2022/11/24 03:02:54;;;;;;;23.63;5.53;;;;;;;;;;5092264;28;20804;-81
2022/11/24 03:05:20;;;;;;;28.10;5.50;;;;;;;;;;5092186;28;20289;-81
2022/11/24 03:07:46;;;;;;;30.90;6.10;;;;;;;;;;5092292;28;20297;-81
2022/11/24 03:10:12;;;;;;;28.47;5.13;;;;;;;;;;5092097;28;20286;-82
2022/11/24 03:12:38;;;;;;;25.83;5.50;;;;;;;;;;5092445;28;20749;-81
2022/11/24 03:15:05;;;;;;;37.00;6.83;;;;;;;;;;5092365;28;20286;-81
2022/11/24 03:17:31;;;;;;;26.20;5.00;;;;;;;;;;5093046;28;20282;-81
2022/11/24 03:19:58;;;;;;;23.73;4.97;;;;;;;;;;5092958;28;20292;-81
2022/11/24 03:22:25;;;;;;;31.73;5.73;;;;;;;;;;5091928;28;20297;-81
2022/11/24 03:24:52;;;;;;;26.47;4.73;;;;;;;;;;5093384;28;20282;-81
2022/11/24 03:27:18;;;;;;;26.70;5.70;;;;;;;;;;5075129;28;20343;-81
2022/11/24 03:29:44;;;;;;;29.37;6.13;;;;;;;;;;5075388;28;20298;-81
2022/11/24 03:32:10;;;;;;;28.27;6.77;;;;;;;;;;5092822;28;20761;-83
2022/11/24 03:34:36;;;;;;;27.93;5.03;;;;;;;;;;5091707;28;20290;-82
2022/11/24 03:37:02;;;;;;;24.03;5.80;;;;;;;;;;5092769;28;20825;-81
2022/11/24 03:39:29;;;;;;;27.73;4.73;;;;;;;;;;5091740;28;20418;-82
2022/11/24 03:41:55;;;;;;;30.93;5.50;;;;;;;;;;5075163;28;20361;-82
2022/11/24 03:44:21;;;;;;;23.77;5.07;;;;;;;;;;5091469;28;20351;-81
2022/11/24 03:46:47;;;;;;;29.37;4.97;;;;;;;;;;5091908;28;20278;-81
2022/11/24 03:49:13;;;;;;;29.43;5.03;;;;;;;;;;5091655;28;20318;-82
2022/11/24 03:51:39;;;;;;;26.60;5.50;;;;;;;;;;5091910;28;20343;-81
2022/11/24 03:54:05;;;;;;;29.50;5.70;;;;;;;;;;5092118;28;20770;-81
2022/11/24 03:56:31;;;;;;;26.10;4.47;;;;;;;;;;5091631;28;20619;-81
2022/11/24 03:58:57;;;;;;;25.77;5.63;;;;;;;;;;5092103;28;20752;-81
2022/11/24 04:01:23;;;;;;;27.37;5.43;;;;;;;;;;5091357;28;20708;-82
2022/11/24 04:03:49;;;;;;;24.10;5.20;;;;;;;;;;5092695;28;20309;-81
2022/11/24 04:06:15;;;;;;;27.63;4.83;;;;;;;;;;5074836;28;20329;-83
2022/11/24 04:08:41;;;;;;;26.43;4.90;;;;;;;;;;5091510;28;20282;-81
2022/11/24 04:11:07;;;;;;;21.17;4.50;;;;;;;;;;5074829;28;20844;-81
2022/11/24 04:13:53;;;;;;;23.57;4.33;;;;;;;;;;5091753;28;20770;-81
2022/11/24 04:16:19;;;;;;;29.23;5.07;;;;;;;;;;5091647;28;20622;-82
2022/11/24 04:18:46;;;;;;;30.33;5.97;;;;;;;;;;5093025;28;20335;-81
2022/11/24 04:21:12;;;;;;;23.33;4.17;;;;;;;;;;5074876;28;20290;-81
2022/11/24 04:23:38;;;;;;;33.03;5.13;;;;;;;;;;5091242;28;20324;-81
2022/11/24 04:26:04;;;;;;;22.57;4.30;;;;;;;;;;5074985;28;20322;-81
2022/11/24 04:28:30;;;;;;;28.03;4.77;;;;;;;;;;5092426;28;20270;-81
2022/11/24 04:31:01;;;;;;;32.87;5.03;;;;;;;;;;5091691;28;20770;-81
2022/11/24 04:33:27;;;;;;;30.83;5.87;;;;;;;;;;5094827;28;20293;-80
2022/11/24 04:35:54;;;;;;;32.73;4.90;;;;;;;;;;5094978;28;20862;-81
2022/11/24 04:38:20;;;;;;;22.43;4.10;;;;;;;;;;5094808;28;20290;-82
2022/11/24 04:40:46;;;;;;;28.43;4.80;;;;;;;;;;5095216;28;20305;-81
2022/11/24 04:43:12;;;;;;;29.43;5.27;;;;;;;;;;5095987;28;20384;-81
2022/11/24 04:45:38;;;;;;;25.43;5.60;;;;;;;;;;5094770;28;20351;-81
2022/11/24 04:48:05;;;;;;;22.67;4.87;;;;;;;;;;5095206;28;20290;-81
2022/11/24 04:50:31;;;;;;;21.53;4.47;;;;;;;;;;5095693;28;20274;-81
2022/11/24 04:52:57;;;;;;;25.23;5.73;;;;;;;;;;5094963;28;20295;-81
2022/11/24 04:55:23;;;;;;;23.53;5.33;;;;;;;;;;5095507;28;20282;-81
2022/11/24 04:57:49;;;;;;;25.67;4.43;;;;;;;;;;5094879;28;20320;-81
2022/11/24 05:00:15;;;;;;;23.97;4.57;;;;;;;;;;5094644;28;20270;-80
2022/11/24 05:02:41;;;;;;;21.63;4.67;;;;;;;;;;5094399;28;20305;-81
2022/11/24 05:05:08;;;;;;;28.23;4.77;;;;;;;;;;5094622;28;20296;-81
2022/11/24 05:07:34;;;;;;;27.60;4.87;;;;;;;;;;5094370;28;20278;-81
2022/11/24 05:12:44;;;;;;;26.97;4.57;;;;;;;;;;5080056;28;20298;-81
2022/11/24 05:15:10;;;;;;;27.97;4.60;;;;;;;;;;5094538;28;20286;-81
2022/11/24 05:17:37;;;;;;;23.97;4.43;;;;;;;;;;5077393;28;20431;-81
2022/11/24 05:20:05;;;;;;;30.73;5.40;;;;;;;;;;5095371;28;20296;-81
2022/11/24 05:22:31;;;;;;;27.63;4.97;;;;;;;;;;5095045;28;20278;-81
2022/11/24 05:24:58;;;;;;;28.10;4.97;;;;;;;;;;5094296;28;20279;-81
2022/11/24 05:27:24;;;;;;;26.23;4.63;;;;;;;;;;5077344;28;20317;-82
2022/11/24 05:29:50;;;;;;;31.70;4.80;;;;;;;;;;5094097;28;20286;-81
2022/11/24 05:32:16;;;;;;;22.93;5.47;;;;;;;;;;5094236;28;20328;-80
2022/11/24 05:34:42;;;;;;;19.67;4.57;;;;;;;;;;5094876;28;20286;-81
2022/11/24 05:37:08;;;;;;;25.13;4.30;;;;;;;;;;5093904;28;20300;-81
2022/11/24 05:39:35;;;;;;;21.87;4.70;;;;;;;;;;5093686;28;20325;-81
2022/11/24 05:42:39;;;;;;;20.07;4.90;;;;;;;;;;5093999;28;20290;-81
2022/11/24 05:44:49;;;;;;;19.90;4.63;;;;;;;;;;5093287;28;20634;-81
2022/11/24 05:47:15;;;;;;;24.20;5.37;;;;;;;;;;5094945;28;20383;-81
2022/11/24 05:49:41;;;;;;;23.83;4.43;;;;;;;;;;5093340;28;20862;-81
2022/11/24 05:52:07;;;;;;;26.23;4.43;;;;;;;;;;5076859;28;20321;-81
2022/11/24 05:54:33;;;;;;;29.87;4.77;;;;;;;;;;5076767;28;20368;-81
2022/11/24 05:56:59;;;;;;;25.20;5.00;;;;;;;;;;5093626;28;20796;-81
2022/11/24 05:59:25;;;;;;;26.03;5.77;;;;;;;;;;5093471;28;20281;-81
2022/11/24 06:01:51;;;;;;;26.37;4.53;;;;;;;;;;5093332;28;20286;-82
2022/11/24 06:04:17;;;;;;;25.80;4.83;;;;;;;;;;5076609;28;20790;-81
2022/11/24 06:06:43;;;;;;;23.80;4.47;;;;;;;;;;5094178;28;20284;-81
2022/11/24 06:09:10;;;;;;;22.60;4.67;;;;;;;;;;5093585;28;20288;-81
2022/11/24 06:11:36;;;;;;;26.87;4.17;;;;;;;;;;5093165;28;20795;-82
2022/11/24 06:14:02;;;;;;;26.37;5.03;;;;;;;;;;5094342;28;20270;-81
2022/11/24 06:16:28;;;;;;;21.83;4.50;;;;;;;;;;5076544;28;20286;-81
2022/11/24 06:18:54;;;;;;;23.50;4.23;;;;;;;;;;5093068;28;20417;-81
2022/11/24 06:21:20;;;;;;;16.90;4.20;;;;;;;;;;5093243;28;20318;-81
2022/11/24 06:23:49;;;;;;;18.63;4.33;;;;;;;;;;5092731;28;20722;-81
2022/11/24 06:26:17;;;;;;;25.03;4.90;;;;;;;;;;5094118;28;20325;-81
2022/11/24 06:28:43;;;;;;;25.43;4.57;;;;;;;;;;5092839;28;20371;-81
2022/11/24 06:31:09;;;;;;;24.93;4.07;;;;;;;;;;5075889;28;20314;-82
2022/11/24 06:33:36;;;;;;;20.53;3.80;;;;;;;;;;5092466;28;20687;-80
2022/11/24 06:36:04;;;;;;;34.27;4.40;;;;;;;;;;5092097;28;20286;-81
2022/11/24 06:38:31;;;;;;;25.77;5.03;;;;;;;;;;5093954;28;20408;-81
2022/11/24 06:41:16;;;;;;;22.63;4.90;;;;;;;;;;5092625;28;20696;-82
2022/11/24 06:43:43;;;;;;;17.58;4.57;;;;;;;;;;5092411;28;20355;-81
2022/11/24 06:46:09;;;;;;;17.43;3.40;;;;;;;;;;5092799;28;20043;-81
2022/11/24 06:48:35;;;;;;;17.73;3.60;;;;;;;;;;5092581;28;20424;-83
2022/11/24 06:51:03;;;;;;;19.40;4.73;;;;;;;;;;5092901;28;20282;-81
2022/11/24 06:53:30;;;;;;;19.57;3.60;;;;;;;;;;5092838;28;20626;-81
2022/11/24 06:56:00;;;;;;;19.20;3.60;;;;;;;;;;5091767;28;20286;-81
2022/11/24 06:58:26;;;;;;;15.43;3.17;;;;;;;;;;5092429;28;20284;-81
2022/11/24 07:00:52;;;;;;;24.87;4.70;;;;;;;;;;5092333;28;20369;-82
2022/11/24 07:03:19;;;;;;;19.87;3.70;;;;;;;;;;5092428;28;20309;-81
2022/11/24 07:05:45;;;;;;;11.10;3.73;;;;;;;;;;5092382;28;20286;-82
2022/11/24 07:08:11;;;;;;;19.80;4.03;;;;;;;;;;5092375;28;20283;-81
2022/11/24 07:10:38;;;;;;;20.60;3.73;;;;;;;;;;5092137;28;20321;-82
2022/11/24 07:13:06;;;;;;;17.20;3.80;;;;;;;;;;5092550;28;20696;-81
2022/11/24 07:15:32;;;;;;;17.40;4.27;;;;;;;;;;5093367;28;20323;-81
2022/11/24 07:17:59;;;;;;;22.73;4.53;;;;;;;;;;5092134;28;20361;-81
2022/11/24 07:20:25;;;;;;;17.93;4.50;;;;;;;;;;5092344;28;20377;-81
2022/11/24 07:22:55;;;;;;;19.33;4.13;;;;;;;;;;5092981;28;20326;-81
2022/11/24 07:25:21;;;;;;;17.50;4.37;;;;;;;;;;5093192;28;20331;-81
2022/11/24 07:27:47;;;;;;;22.07;5.43;;;;;;;;;;5075273;28;20678;-81
2022/11/24 07:30:13;;;;;;;16.63;4.40;;;;;;;;;;5093350;28;20293;-81
2022/11/24 07:32:39;;;;;;;19.00;5.37;;;;;;;;;;5092170;28;20906;-82
2022/11/24 07:35:06;;;;;;;16.47;4.63;;;;;;;;;;5075418;28;20373;-81
2022/11/24 07:37:32;;;;;;;16.30;5.10;;;;;;;;;;5092016;28;20762;-81
2022/11/24 07:39:58;;;;;;;18.20;5.90;;;;;;;;;;5091845;28;20286;-81
2022/11/24 07:42:24;;;;;;;23.60;5.40;;;;;;;;;;5091831;28;20736;-81
2022/11/24 07:44:50;;;;;;;20.20;5.90;;;;;;;;;;5092749;28;20306;-82
2022/11/24 07:47:16;;;;;;;18.87;6.53;;;;;;;;;;5092138;28;20368;-81
2022/11/24 07:49:42;;;;;;;22.17;5.97;;;;;;;;;;5091773;28;20290;-82
2022/11/24 07:52:08;;;;;;;21.40;6.07;;;;;;;;;;5092961;28;20278;-81
2022/11/24 07:54:34;;;;;;;27.07;6.37;;;;;;;;;;5092886;28;20364;-81
2022/11/24 07:57:00;;;;;;;19.37;6.13;;;;;;;;;;5091456;28;20364;-81
2022/11/24 07:59:26;;;;;;;21.77;6.53;;;;;;;;;;5094100;28;20677;-79
2022/11/24 08:01:53;;;;;;;19.33;6.50;;;;;;;;;;5099986;28;20278;-80
2022/11/24 08:04:19;;;;;;;21.50;6.87;;;;;;;;;;5091867;28;20337;-80
2022/11/24 08:06:45;;;;;;;21.37;6.77;;;;;;;;;;5091669;28;20364;-83
2022/11/24 08:09:11;;;;;;;21.03;5.83;;;;;;;;;;5095734;28;20290;-80
2022/11/24 08:11:37;;;;;;;22.73;6.57;;;;;;;;;;5095753;28;20814;-79
2022/11/24 08:14:03;;;;;;;19.93;6.13;;;;;;;;;;5096408;28;20278;-79
2022/11/24 08:16:30;;;;;;;23.30;6.23;;;;;;;;;;5096825;28;20329;-81
2022/11/24 08:18:56;;;;;;;22.87;6.53;;;;;;;;;;5095293;28;20282;-80
2022/11/24 08:21:23;;;;;;;27.07;6.53;;;;;;;;;;5096507;28;20365;-81
2022/11/24 08:23:49;;;;;;;19.93;6.80;;;;;;;;;;5096108;28;20754;-81
2022/11/24 08:26:17;;;;;;;19.50;6.53;;;;;;;;;;5096475;28;20383;-81
2022/11/24 08:28:44;;;;;;;20.33;6.63;;;;;;;;;;5096372;28;20282;-80
2022/11/24 08:31:12;;;;;;;26.27;8.33;;;;;;;;;;5095068;28;20278;-80
2022/11/24 08:33:39;;;;;;;19.17;6.77;;;;;;;;;;5096483;28;20285;-80
2022/11/24 08:36:06;;;;;;;21.17;6.70;;;;;;;;;;5095553;28;20286;-79
2022/11/24 08:38:32;;;;;;;17.43;7.47;;;;;;;;;;5095494;28;20293;-81
2022/11/24 08:41:05;;;;;;;15.90;6.87;;;;;;;;;;5094675;28;20314;-81
2022/11/24 08:43:31;;;;;;;19.83;6.13;;;;;;;;;;5096081;28;20304;-80
2022/11/24 08:46:05;;;;;;;21.73;7.10;;;;;;;;;;5095839;28;20305;-81
2022/11/24 08:48:31;;;;;;;19.77;5.40;;;;;;;;;;5095144;28;20644;-81
2022/11/24 08:50:57;;;;;;;17.07;5.83;;;;;;;;;;5095804;28;20332;-81
2022/11/24 08:53:24;;;;;;;16.10;5.70;;;;;;;;;;5096214;28;20276;-82
2022/11/24 08:55:49;;;;;;;16.50;5.10;;;7.60;99.90;;;;;;5094454;28;20288;-82
2022/11/24 08:58:15;;;;;;;15.87;5.13;;;7.60;99.90;;;;;;5094591;28;20716;-79
2022/11/24 09:00:42;;;;;;;15.63;4.73;;;7.50;99.90;;;;;;5095914;28;20044;-80
2022/11/24 09:03:10;;;;;;;17.87;4.87;;;7.60;99.90;;;;;;5095421;28;20044;-81
2022/11/24 09:05:37;;;;;;;21.10;5.07;;;7.60;99.90;;;;;;5095412;28;20770;-79
2022/11/24 09:08:03;;;;;;;15.77;5.20;;;7.60;99.90;;;;;;5095358;28;20314;-79
2022/11/24 09:10:28;;;;;;;15.10;4.80;;;7.70;99.90;;;;;;5077799;28;20690;-82
2022/11/24 09:12:54;;;;;;;10.70;4.07;;;7.80;99.90;;;;;;5094350;28;20070;-82
2022/11/24 09:15:20;;;;;;;9.10;4.00;;;7.80;99.90;;;;;;5094567;28;20127;-81
2022/11/24 09:17:45;;;;;;;15.57;4.30;;;7.80;99.90;;;;;;5094963;28;20055;-81
2022/11/24 09:20:11;;;;;;;14.60;3.97;;;7.80;99.90;;;;;;5095171;28;20036;-80
2022/11/24 09:22:38;;;;;;;14.73;4.30;;;7.80;99.90;;;;;;5094161;28;20526;-80
2022/11/24 09:25:05;;;;;;;13.10;4.17;;;7.80;99.90;;;;;;5093914;28;20131;-81
2022/11/24 09:27:31;;;;;;;9.73;3.27;;;7.80;99.90;;;;;;5095383;28;20274;-82
2022/11/24 09:29:57;;;;;;;10.70;3.10;;;7.80;99.90;;;;;;5094994;28;20761;-80
2022/11/24 09:32:22;;;;;;;9.90;3.23;;;7.70;99.90;;;;;;5094249;28;20477;-80
2022/11/24 09:34:51;;;;;;;6.50;2.77;;;7.80;99.90;;;;;;5094414;28;20142;-82
2022/11/24 09:37:17;;;;;;;9.10;3.17;;;7.80;99.90;;;;;;5093259;28;20496;-80
2022/11/24 09:39:43;;;;;;;13.40;3.47;;;7.80;99.90;;;;;;5094285;28;20282;-82
2022/11/24 09:42:33;;;;;;;10.87;3.10;;;7.80;99.90;;;;;;5094718;28;20278;-76
2022/11/24 09:45:40;;;;;;;11.03;3.07;;;7.80;99.90;;;;;;5094007;28;20078;-78
2022/11/24 09:48:16;;;;;;;12.50;3.20;;;7.80;99.90;;;;;;5079977;28;20291;-79
2022/11/24 09:50:42;;;;;;;;;;;7.80;99.90;;;;;;5094157;28;20327;-78
2022/11/24 09:53:34;;;;;;;11.60;3.33;;;7.80;99.90;;;;;;5097239;28;20387;-81
2022/11/24 09:56:20;;;;;;;9.87;3.20;;;7.90;99.90;;;;;;5099458;28;20285;-82
2022/11/24 09:59:01;;;;;;;;;;;7.90;99.90;;;;;;5103246;28;20278;-82
2022/11/24 10:01:35;;;;;;;8.33;2.87;;;7.90;99.90;;;;;;5102861;28;19926;-82
2022/11/24 10:04:02;;;;;;;8.10;2.90;;;7.90;99.90;;;;;;5100925;28;20374;-83
2022/11/24 10:06:31;;;;;;;10.17;3.40;;;7.90;99.90;;;;;;5103384;28;20599;-81
2022/11/24 10:09:09;;;;;;;10.40;3.07;;;8.00;99.90;;;;;;5105265;28;20757;-81
2022/11/24 10:11:57;;;;;;;10.83;3.40;;;8.00;99.90;;;;;;5104507;28;20289;-82
2022/11/24 10:14:47;;;;;;;13.23;3.40;;;8.00;99.90;;;;;;5100282;28;20293;-77
2022/11/24 10:17:25;;;;;;;12.60;3.00;;;8.10;99.90;;;;;;5114330;28;20285;-79
2022/11/24 10:20:15;;;;;;;9.97;3.70;;;8.10;99.90;;;;;;5114025;28;20645;-79
2022/11/24 10:23:10;;;;;;;9.57;3.70;;;8.20;99.90;;;;;;5114834;28;20331;-77
2022/11/24 10:25:45;;;;;;;10.63;3.40;;;8.20;99.90;;;;;;5114573;28;20278;-84
2022/11/24 10:28:14;;;;;;;14.43;4.17;;;8.20;99.90;;;;;;5114320;28;20297;-85
2022/11/24 10:30:41;;;;;;;15.37;4.23;;;8.20;99.90;;;;;;5113630;27;20350;-85
2022/11/24 10:33:19;;;;;;;10.07;3.77;;;8.30;99.90;;;;;;5114242;28;20313;-86
2022/11/24 10:36:08;;;;;;;14.67;3.93;;;8.30;99.90;;;;;;5096379;28;20300;-86
2022/11/24 10:39:06;;;;;;;13.20;4.47;;;8.40;99.90;;;;;;5114613;28;20305;-85
2022/11/24 10:41:46;;;;;;;12.03;4.00;;;8.40;99.90;;;;;;5113460;28;20297;-86
2022/11/24 10:44:13;;;;;;;12.67;4.33;;;8.40;99.90;;;;;;5114026;28;20641;-83
2022/11/24 10:46:39;;;;;;;15.13;4.17;;;8.50;99.90;;;;;;5096256;28;20300;-86
2022/11/24 10:49:05;;;;;;;14.33;4.37;;;8.50;99.90;;;;;;5112903;28;20625;-85
2022/11/24 10:52:00;;;;;;;15.73;4.70;;;8.50;99.90;;;;;;5114172;28;20047;-83
2022/11/24 10:54:26;;;;;;;13.80;3.93;;;8.50;99.90;;;;;;5113922;28;20104;-83
2022/11/24 10:56:53;;;;;;;13.30;4.10;;;8.50;99.90;;;;;;5114055;28;20613;-86
2022/11/24 10:59:39;;;;;;;15.43;3.43;;;8.60;99.90;;;;;;5078622;28;20479;-80
2022/11/24 11:02:31;;;;;;;14.70;3.90;;;8.60;99.90;;;;;;5113651;28;20286;-83
2022/11/24 11:04:57;;;;;;;12.63;4.47;;;8.70;99.90;;;;;;5112802;28;20101;-84
2022/11/24 11:07:25;;;;;;;12.20;3.83;;;8.70;99.90;;;;;;5113580;28;20281;-82
2022/11/24 11:10:11;;;;;;;17.63;4.60;;;;;;;;;;5113810;28;20282;-81
2022/11/24 11:12:37;;;;;;;13.83;4.53;;;;;;;;;;5112944;28;20308;-79
2022/11/24 11:15:21;;;;;;;21.30;4.53;;;;;;;;;;5112699;28;20781;-81
2022/11/24 11:17:49;;;;;;;13.33;3.90;;;8.70;99.90;;;;;;5112835;28;20847;-81
2022/11/24 11:20:32;;;;;;;17.67;4.40;;;8.70;99.90;;;;;;5112316;28;20282;-86
2022/11/24 11:23:03;;;;;;;14.60;4.43;;;8.70;99.90;;;;;;5112414;28;20733;-78
2022/11/24 11:25:34;;;;;;;15.23;4.20;;;8.70;99.90;;;;;;5095466;28;20341;-82
2022/11/24 11:28:28;;;;;;;16.03;4.63;;;8.70;99.90;;;;;;5113884;28;20373;-83
2022/11/24 11:31:05;;;;;;;14.37;4.53;;;8.80;99.90;;;;;;5112601;28;20773;-82
2022/11/24 11:33:35;;;;;;;11.10;3.77;;;8.70;99.90;;;;;;5113340;28;20273;-79
2022/11/24 11:36:07;;;;;;;15.93;4.33;;;8.80;99.90;;;;;;5095711;28;20290;-79
2022/11/24 11:38:36;;;;;;;13.33;4.03;;;;;;;;;;5112726;28;20346;-78
2022/11/24 11:41:03;;;;;;;16.07;4.63;;;;;;;;;;5113017;28;20765;-77
2022/11/24 11:43:34;;;;;;;15.70;4.70;;;;;;;;;;5099428;28;20316;-82
2022/11/24 11:46:16;;;;;;;17.73;4.20;;;8.90;99.90;;;;;;5117769;28;20281;-83
2022/11/24 11:48:46;;;;;;;13.87;4.03;;;9.00;99.90;;;;;;5117720;28;20277;-85
2022/11/24 11:51:32;;;;;;;14.17;4.13;;;9.00;99.90;;;;;;5117484;28;20289;-83
2022/11/24 11:54:10;;;;;;;11.97;4.10;;;9.00;99.90;;;;;;5117700;28;20281;-82
2022/11/24 11:56:44;;;;;;;17.90;4.23;;;9.00;99.90;;;;;;5117392;28;20300;-81
2022/11/24 11:59:33;;;;;;;15.47;4.53;;;9.00;99.90;;;;;;5117517;28;20314;-81
2022/11/24 12:02:35;;;;;;;16.30;4.80;;;9.00;99.90;;;;;;5105822;28;20421;-81
2022/11/24 12:05:11;;;;;;;13.80;4.27;;;9.10;99.90;;;;;;5098682;28;20311;-79
2022/11/24 12:07:44;;;;;;;12.53;4.13;;;;;;;;;;5117651;28;20321;-80
2022/11/24 12:10:20;;;;;;;14.73;3.87;;;9.10;99.90;;;;;;5116908;28;20796;-78
2022/11/24 12:13:20;;;;;;;17.27;4.43;;;9.10;99.90;;;;;;5116022;28;20307;-79
2022/11/24 12:15:55;;;;;;;15.63;3.80;;;9.10;99.90;;;;;;5116229;28;20296;-79
2022/11/24 12:18:53;;;;;;;14.82;4.07;;;9.20;99.90;;;;;;5115527;28;20300;-80
2022/11/24 12:21:23;;;;;;;16.27;3.80;;;9.30;99.90;;;;;;5116729;28;20091;-78
2022/11/24 12:23:54;;;;;;;17.13;3.50;;;9.20;99.90;;;;;;5115973;28;20365;-78
2022/11/24 12:26:31;;;;;;;13.47;3.30;;;9.20;99.90;;;;;;5116710;28;20360;-77
2022/11/24 12:29:22;;;;;;;12.90;3.00;;;9.30;99.90;;;;;;5116181;28;20637;-78
2022/11/24 12:32:21;;;;;;;15.30;3.23;;;9.30;99.90;;;;;;5116863;27;20321;-78
2022/11/24 12:35:05;;;;;;;17.57;3.17;;;9.30;99.90;;;;;;5114390;28;20384;-83
2022/11/24 12:37:42;;;;;;;16.13;3.50;;;9.30;99.90;;;;;;5114931;28;20833;-82
2022/11/24 12:40:10;;;;;;;12.03;2.87;;;9.30;99.90;;;;;;5098709;28;20761;-82
2022/11/24 12:43:06;;;;;;;19.07;3.43;;;9.40;99.90;;;;;;5116587;28;20274;-82
2022/11/24 12:45:38;;;;;;;;;;;9.40;99.90;;;;;;5115882;28;20301;-81
2022/11/24 12:48:11;;;;;;;14.00;2.57;;;9.40;99.90;;;;;;5116744;28;19919;-81
2022/11/24 12:50:39;;;;;;;18.87;2.93;;;9.40;99.90;;;;;;5115962;28;20788;-83
2022/11/24 12:53:11;;;;;;;15.00;2.93;;;9.40;99.90;;;;;;5115416;28;20270;-78
2022/11/24 12:55:39;;;;;;;13.03;3.03;;;9.40;99.90;;;;;;5115174;28;20309;-80
2022/11/24 12:58:13;;;;;;;16.07;3.17;;;9.40;99.90;;;;;;5132552;27;20289;-79
2022/11/24 13:00:59;;;;;;;15.10;3.20;;;9.40;99.90;;;;;;5116044;28;20400;-81
2022/11/24 13:03:44;;;;;;;22.53;3.60;;;9.50;99.90;;;;;;5116061;28;20293;-81
2022/11/24 13:06:26;;;;;;;17.53;4.03;;;9.50;99.90;;;;;;5115226;28;20322;-81
2022/11/24 13:08:52;;;;;;;16.10;2.63;;;9.50;99.90;;;;;;5116371;28;20274;-80
2022/11/24 13:11:20;;;;;;;26.87;4.40;;;9.50;99.90;;;;;;5098090;28;20354;-80
2022/11/24 13:14:01;;;;;;;19.73;3.47;;;9.50;99.90;;;;;;5116374;28;20048;-78
2022/11/24 13:16:28;;;;;;;23.30;5.30;;;9.50;99.90;;;;;;5097752;28;20298;-80
2022/11/24 13:19:06;;;;;;;15.03;3.53;;;9.60;99.90;;;;;;5115992;28;20296;-80
2022/11/24 13:21:48;;;;;;;22.67;3.93;;;9.60;99.90;;;;;;5114687;28;20297;-80
2022/11/24 13:24:17;;;;;;;17.73;4.00;;;9.50;99.90;;;;;;5114815;28;20301;-79
2022/11/24 13:26:49;;;;;;;21.10;4.30;;;9.60;99.90;;;;;;5115530;28;20346;-81
2022/11/24 13:29:26;;;;;;;25.83;4.10;;;9.60;99.90;;;;;;5114867;28;20290;-81
2022/11/24 13:32:13;;;;;;;17.53;4.10;;;9.60;99.90;;;;;;5115890;28;20330;-81
2022/11/24 13:34:41;;;;;;;29.10;4.47;;;9.60;99.90;;;;;;5114977;28;20302;-80
2022/11/24 13:37:17;;;;;;;17.40;4.37;;;9.60;99.90;;;;;;5114959;28;20777;-74
2022/11/24 13:39:52;;;;;;;18.83;4.10;;;9.60;99.90;;;;;;5115362;28;20721;-79
2022/11/24 13:42:19;;;;;;;15.73;3.17;;;9.60;99.90;;;;;;5115415;28;20292;-79
2022/11/24 13:45:05;;;;;;;21.77;4.23;;;9.70;99.90;;;;;;5115132;28;20105;-80
2022/11/24 13:47:35;;;;;;;15.73;3.43;;;9.70;99.90;;;;;;5115093;28;20285;-77
2022/11/24 13:50:22;;;;;;;16.50;4.03;;;9.70;99.90;;;;;;5115296;28;20285;-83
2022/11/24 13:52:50;;;;;;;23.80;4.70;;;9.60;99.90;;;;;;5114962;28;20286;-84
2022/11/24 13:55:15;;;;;;;16.10;4.13;;;9.60;99.90;;;;;;5115209;28;20328;-84
2022/11/24 13:57:45;;;;;;;22.37;3.90;;;9.60;99.90;;;;;;5114512;28;20325;-83
2022/11/24 14:00:54;;;;;;;16.77;3.40;;;9.70;99.90;;;;;;5102065;28;20044;-84
2022/11/24 14:03:26;;;;;;;19.83;4.10;;;9.50;99.90;;;;;;5100312;28;20302;-84
2022/11/24 14:05:53;;;;;;;23.87;4.50;;;9.60;99.90;;;;;;5094521;28;20294;-82
2022/11/24 14:08:31;;;;;;;22.77;4.10;;;9.60;99.90;;;;;;5093331;28;20377;-77
2022/11/24 14:10:59;;;;;;;17.93;3.20;;;9.50;99.90;;;;;;5094705;28;20270;-76